Time;durP1;ratioP1;P1;durP2;ratioP2;P2;SDS_P1;SDS_P2;PMS_P1;PMS_P2;Temp;Humidity;BMP_temperature;BMP_pressure;BME280_temperature;BME280_humidity;BME280_pressure;Samples;Min_cycle;Max_cycle;Signal;HPM_P1;HPM_P2
2024/01/02 00:02:09;;;;;;;7.60;2.05;;;7.90;94.80;;;;;;5053002;28;20074;-36
2024/01/02 00:04:35;;;;;;;8.18;2.08;;;7.90;94.80;;;;;;5053331;28;20037;-36
2024/01/02 00:07:00;;;;;;;8.13;1.80;;;7.90;94.80;;;;;;5052773;28;20047;-37
2024/01/02 00:09:26;;;;;;;9.35;1.92;;;7.90;94.80;;;;;;5053036;28;20029;-37
2024/01/02 00:11:51;;;;;;;7.38;1.90;;;7.90;94.80;;;;;;5052904;28;20025;-36
2024/01/02 00:14:17;;;;;;;8.95;1.98;;;7.90;94.90;;;;;;5052838;28;20373;-36
2024/01/02 00:16:42;;;;;;;6.82;2.20;;;7.90;94.80;;;;;;5052984;28;20020;-38
2024/01/02 00:19:08;;;;;;;8.18;1.83;;;7.90;94.80;;;;;;5051460;28;20036;-36
2024/01/02 00:21:33;;;;;;;6.65;1.77;;;7.90;94.80;;;;;;5052848;28;20021;-37
2024/01/02 00:24:01;;;;;;;5.07;1.75;;;7.90;94.90;;;;;;5052730;28;20528;-36
2024/01/02 00:26:27;;;;;;;6.40;1.85;;;7.90;94.90;;;;;;5052994;28;20032;-37
2024/01/02 00:28:52;;;;;;;6.40;1.70;;;7.90;94.80;;;;;;5052390;28;20386;-37
2024/01/02 00:31:19;;;;;;;7.13;1.65;;;7.90;94.80;;;;;;5052555;28;20421;-37
2024/01/02 00:33:44;;;;;;;9.73;1.98;;;7.90;94.80;;;;;;5052164;28;20037;-36
2024/01/02 00:36:10;;;;;;;7.13;1.75;;;7.90;94.90;;;;;;5052527;28;20044;-36
2024/01/02 00:38:36;;;;;;;7.72;2.00;;;7.90;95.00;;;;;;5052253;28;20025;-37
2024/01/02 00:41:02;;;;;;;8.43;2.13;;;7.90;95.20;;;;;;5052294;28;20044;-35
2024/01/02 00:43:28;;;;;;;9.40;1.70;;;8.00;95.30;;;;;;5052217;28;20029;-36
2024/01/02 00:45:53;;;;;;;7.20;1.90;;;7.90;95.30;;;;;;5051977;28;20147;-36
2024/01/02 00:48:19;;;;;;;7.63;1.70;;;7.90;95.40;;;;;;5052300;28;20103;-36
2024/01/02 00:50:44;;;;;;;7.90;1.70;;;7.90;95.70;;;;;;5052081;28;20042;-37
2024/01/02 00:53:10;;;;;;;7.18;2.05;;;7.90;95.90;;;;;;5052253;28;20025;-36
2024/01/02 00:55:36;;;;;;;9.07;2.50;;;7.90;96.00;;;;;;5052402;28;20023;-45
2024/01/02 00:58:01;;;;;;;6.43;1.90;;;8.00;96.10;;;;;;5051764;28;20032;-41
2024/01/02 01:00:27;;;;;;;7.28;1.80;;;7.90;96.20;;;;;;5051893;28;20025;-52
2024/01/02 01:02:52;;;;;;;5.95;1.67;;;7.90;96.30;;;;;;5051991;28;20029;-36
2024/01/02 01:05:18;;;;;;;6.97;1.80;;;7.90;96.40;;;;;;5051808;28;20420;-38
2024/01/02 01:07:44;;;;;;;8.43;1.80;;;7.90;96.50;;;;;;5052095;28;20048;-51
2024/01/02 01:10:09;;;;;;;4.75;1.50;;;7.90;96.50;;;;;;5052181;28;20043;-37
2024/01/02 01:12:36;;;;;;;6.60;1.60;;;7.90;96.60;;;;;;5051729;28;20108;-35
2024/01/02 01:15:02;;;;;;;6.28;1.77;;;7.90;96.70;;;;;;5051723;28;20033;-36
2024/01/02 01:17:27;;;;;;;6.57;2.58;;;7.90;96.70;;;;;;5051889;28;20028;-38
2024/01/02 01:19:53;;;;;;;8.50;1.50;;;7.90;96.80;;;;;;5051739;28;20028;-37
2024/01/02 01:22:18;;;;;;;10.38;2.05;;;7.90;96.90;;;;;;5051606;28;20060;-37
2024/01/02 01:24:44;;;;;;;4.55;1.30;;;7.90;97.00;;;;;;5051651;28;20028;-36
2024/01/02 01:27:09;;;;;;;6.78;1.35;;;7.90;97.10;;;;;;5051636;28;20024;-37
2024/01/02 01:29:35;;;;;;;6.18;1.38;;;7.90;97.20;;;;;;5051634;28;20049;-36
2024/01/02 01:32:01;;;;;;;4.88;1.42;;;8.00;97.40;;;;;;5051433;28;20488;-37
2024/01/02 01:34:26;;;;;;;4.28;1.30;;;8.00;97.50;;;;;;5051871;28;20238;-37
2024/01/02 01:36:54;;;;;;;6.03;1.77;;;8.00;97.50;;;;;;5051835;28;20021;-37
2024/01/02 01:39:19;;;;;;;3.42;1.13;;;8.00;97.50;;;;;;5051765;28;20393;-36
2024/01/02 01:41:45;;;;;;;5.38;1.40;;;8.00;97.60;;;;;;5051524;28;20029;-37
2024/01/02 01:44:10;;;;;;;5.40;1.85;;;8.00;97.60;;;;;;5051578;28;20033;-38
2024/01/02 01:46:39;;;;;;;8.93;1.77;;;8.00;97.70;;;;;;5051433;28;20075;-37
2024/01/02 01:49:07;;;;;;;6.28;1.50;;;8.00;97.80;;;;;;5051481;28;20457;-38
2024/01/02 01:51:36;;;;;;;5.85;1.52;;;8.00;97.80;;;;;;5051627;28;20090;-37
2024/01/02 01:54:03;;;;;;;7.93;1.60;;;8.00;97.80;;;;;;5051536;28;20029;-36
2024/01/02 01:56:30;;;;;;;5.68;1.10;;;8.10;98.00;;;;;;5051754;28;20029;-38
2024/01/02 01:58:56;;;;;;;5.82;1.20;;;8.00;98.00;;;;;;5055130;28;20435;-37
2024/01/02 02:01:22;;;;;;;5.53;1.40;;;8.10;98.20;;;;;;5054847;28;20024;-37
2024/01/02 02:03:49;;;;;;;6.65;1.40;;;8.00;98.20;;;;;;5054998;28;20025;-37
2024/01/02 02:06:15;;;;;;;4.07;1.42;;;8.00;98.20;;;;;;5055220;28;20574;-37
2024/01/02 02:08:41;;;;;;;4.85;1.27;;;8.00;98.40;;;;;;5055402;28;20100;-37
2024/01/02 02:11:08;;;;;;;5.95;1.60;;;8.00;98.50;;;;;;5055319;28;20021;-37
2024/01/02 02:13:35;;;;;;;4.80;1.15;;;8.10;98.60;;;;;;5055413;28;20078;-36
2024/01/02 02:16:00;;;;;;;3.55;1.20;;;8.10;98.60;;;;;;5055310;28;20029;-39
2024/01/02 02:18:26;;;;;;;3.00;1.10;;;8.00;98.60;;;;;;5055246;28;20032;-36
2024/01/02 02:20:51;;;;;;;2.22;1.13;;;8.10;98.80;;;;;;5054883;28;20021;-36
2024/01/02 02:23:17;;;;;;;5.35;1.20;;;8.10;98.80;;;;;;5054765;28;20025;-37
2024/01/02 02:25:43;;;;;;;2.92;1.15;;;8.10;98.90;;;;;;5053904;28;20110;-37
2024/01/02 02:28:09;;;;;;;4.80;1.13;;;8.10;98.90;;;;;;5054992;28;20017;-40
2024/01/02 02:30:34;;;;;;;3.05;1.08;;;8.00;99.20;;;;;;5055185;28;20017;-38
2024/01/02 02:33:00;;;;;;;2.97;1.17;;;8.10;99.10;;;;;;5054648;28;20041;-38
2024/01/02 02:35:25;;;;;;;3.50;1.10;;;8.10;99.10;;;;;;5054771;28;20040;-39
2024/01/02 02:37:54;;;;;;;2.35;0.90;;;8.00;99.20;;;;;;5054656;28;20403;-39
2024/01/02 02:40:19;;;;;;;3.42;0.93;;;8.00;99.20;;;;;;5054981;28;20440;-39
2024/01/02 02:42:45;;;;;;;3.70;1.30;;;8.10;99.30;;;;;;5054861;28;20029;-38
2024/01/02 02:45:10;;;;;;;3.30;1.08;;;8.00;99.30;;;;;;5054850;28;20027;-37
2024/01/02 02:47:37;;;;;;;2.40;1.08;;;8.10;99.40;;;;;;5054747;28;20043;-38
2024/01/02 02:50:05;;;;;;;3.13;0.95;;;8.00;99.40;;;;;;5054631;28;20493;-38
2024/01/02 02:52:32;;;;;;;4.72;1.30;;;8.00;99.50;;;;;;5054660;28;20452;-37
2024/01/02 02:54:58;;;;;;;2.10;0.82;;;8.10;99.60;;;;;;5053009;28;20048;-39
2024/01/02 02:57:23;;;;;;;2.67;1.10;;;8.10;99.70;;;;;;5054077;28;20032;-38
2024/01/02 02:59:49;;;;;;;1.65;0.90;;;8.10;99.70;;;;;;5054265;28;20021;-39
2024/01/02 03:02:15;;;;;;;1.98;0.77;;;8.10;99.70;;;;;;5054501;28;20025;-39
2024/01/02 03:04:40;;;;;;;2.33;0.85;;;8.10;99.80;;;;;;5054441;28;20021;-39
2024/01/02 03:07:06;;;;;;;2.78;0.77;;;8.10;99.80;;;;;;5053875;28;20021;-39
2024/01/02 03:09:32;;;;;;;1.95;1.10;;;8.10;99.80;;;;;;5053686;28;20445;-39
2024/01/02 03:11:58;;;;;;;3.75;0.88;;;8.10;99.80;;;;;;5054193;28;20083;-39
2024/01/02 03:14:23;;;;;;;1.33;0.73;;;8.10;99.80;;;;;;5054297;28;20021;-38
2024/01/02 03:16:49;;;;;;;1.58;0.52;;;8.10;99.90;;;;;;5054026;28;20021;-39
2024/01/02 03:19:15;;;;;;;4.55;0.70;;;8.10;99.90;;;;;;5053849;28;20029;-40
2024/01/02 03:21:41;;;;;;;2.60;0.80;;;8.10;99.90;;;;;;5054055;28;20115;-38
2024/01/02 03:24:06;;;;;;;2.22;0.90;;;8.10;99.90;;;;;;5053996;28;20474;-40
2024/01/02 03:26:32;;;;;;;3.30;1.00;;;8.10;99.90;;;;;;5054031;28;20025;-37
2024/01/02 03:28:57;;;;;;;1.50;1.00;;;8.10;99.90;;;;;;5053936;28;20021;-40
2024/01/02 03:31:23;;;;;;;2.70;0.80;;;8.10;99.90;;;;;;5053733;28;20061;-37
2024/01/02 03:33:49;;;;;;;1.58;0.85;;;8.10;99.90;;;;;;5053572;28;20037;-39
2024/01/02 03:36:21;;;;;;;2.95;0.98;;;8.10;99.90;;;;;;5053583;28;20037;-38
2024/01/02 03:38:51;;;;;;;2.67;0.90;;;8.10;99.90;;;;;;5053512;28;20021;-40
2024/01/02 03:41:17;;;;;;;0.88;0.63;;;8.10;99.90;;;;;;5053365;28;20033;-39
2024/01/02 03:43:43;;;;;;;2.42;0.93;;;8.10;99.90;;;;;;5053755;28;20412;-38
2024/01/02 03:46:10;;;;;;;1.60;0.60;;;8.10;99.90;;;;;;5053642;28;20074;-40
2024/01/02 03:48:35;;;;;;;1.42;0.70;;;8.10;99.90;;;;;;5053196;28;20028;-40
2024/01/02 03:51:01;;;;;;;1.48;0.63;;;8.10;99.90;;;;;;5053419;28;20025;-40
2024/01/02 03:53:28;;;;;;;1.52;0.75;;;8.10;99.90;;;;;;5052307;28;20032;-39
2024/01/02 03:55:54;;;;;;;1.45;0.70;;;8.10;99.90;;;;;;5053167;28;20021;-38
2024/01/02 03:58:20;;;;;;;2.45;0.73;;;8.10;99.90;;;;;;5053041;28;20024;-40
2024/01/02 04:00:45;;;;;;;1.42;0.82;;;8.10;99.90;;;;;;5053012;28;20025;-39
2024/01/02 04:03:11;;;;;;;2.63;0.80;;;8.10;99.90;;;;;;5052987;28;20366;-38
2024/01/02 04:05:37;;;;;;;0.85;0.70;;;8.10;99.90;;;;;;5053298;28;20013;-40
2024/01/02 04:08:02;;;;;;;0.98;0.73;;;8.10;99.90;;;;;;5052896;28;20444;-37
2024/01/02 04:10:28;;;;;;;1.30;0.70;;;8.10;99.90;;;;;;5053010;28;20024;-39
2024/01/02 04:12:53;;;;;;;0.65;0.65;;;8.10;99.90;;;;;;5052835;28;20031;-38
2024/01/02 04:15:19;;;;;;;0.80;0.80;;;8.10;99.90;;;;;;5053398;28;20017;-40
2024/01/02 04:17:45;;;;;;;1.30;0.70;;;8.10;99.90;;;;;;5051326;28;20067;-39
2024/01/02 04:20:10;;;;;;;0.60;0.60;;;8.20;99.90;;;;;;5051965;28;20108;-39
2024/01/02 04:22:36;;;;;;;0.93;0.90;;;8.20;99.90;;;;;;5052802;28;20047;-40
2024/01/02 04:25:02;;;;;;;1.45;0.70;;;8.20;99.90;;;;;;5052954;28;20017;-39
2024/01/02 04:27:27;;;;;;;0.40;0.40;;;8.20;99.90;;;;;;5052291;28;20033;-40
2024/01/02 04:29:53;;;;;;;0.68;0.60;;;8.20;99.90;;;;;;5052546;28;20526;-40
2024/01/02 04:32:18;;;;;;;0.80;0.60;;;8.30;99.90;;;;;;5052382;28;20045;-39
2024/01/02 04:34:44;;;;;;;0.60;0.60;;;8.30;99.90;;;;;;5052455;28;20029;-38
2024/01/02 04:37:11;;;;;;;0.65;0.60;;;8.30;99.90;;;;;;5052287;28;20029;-40
2024/01/02 04:39:36;;;;;;;0.68;0.57;;;8.30;99.90;;;;;;5052691;28;20431;-38
2024/01/02 04:42:02;;;;;;;0.40;0.40;;;8.30;99.90;;;;;;5052697;28;20132;-38
2024/01/02 04:44:28;;;;;;;0.50;0.30;;;8.40;99.90;;;;;;5052527;28;20112;-40
2024/01/02 04:46:54;;;;;;;1.35;0.32;;;8.40;99.90;;;;;;5052140;28;20516;-38
2024/01/02 04:49:19;;;;;;;0.20;0.20;;;8.40;99.90;;;;;;5052423;28;20346;-40
2024/01/02 04:51:45;;;;;;;0.40;0.30;;;8.50;99.90;;;;;;5052010;28;20437;-38
2024/01/02 04:54:11;;;;;;;0.20;0.20;;;8.50;99.90;;;;;;5052462;28;20052;-39
2024/01/02 04:56:37;;;;;;;0.40;0.30;;;8.50;99.90;;;;;;5052144;28;20090;-40
2024/01/02 04:59:03;;;;;;;0.30;0.30;;;8.60;99.90;;;;;;5051947;28;20448;-39
2024/01/02 05:01:29;;;;;;;0.28;0.28;;;8.60;99.90;;;;;;5052113;28;20021;-39
2024/01/02 05:03:55;;;;;;;3.13;0.45;;;8.60;99.90;;;;;;5052112;28;20397;-40
2024/01/02 05:06:23;;;;;;;1.80;0.50;;;8.60;99.90;;;;;;5051876;28;20029;-39
2024/01/02 05:08:49;;;;;;;0.88;0.60;;;8.70;99.90;;;;;;5051808;28;20104;-41
2024/01/02 05:11:14;;;;;;;0.95;0.70;;;8.70;99.90;;;;;;5052164;28;20092;-38
2024/01/02 05:13:40;;;;;;;0.68;0.68;;;8.70;99.90;;;;;;5050595;28;20321;-39
2024/01/02 05:16:08;;;;;;;0.70;0.70;;;8.80;99.90;;;;;;5052093;28;20469;-40
2024/01/02 05:18:33;;;;;;;0.80;0.77;;;8.80;99.90;;;;;;5052053;28;20608;-39
2024/01/02 05:20:59;;;;;;;0.80;0.60;;;8.80;99.90;;;;;;5051840;28;20057;-39
2024/01/02 05:23:25;;;;;;;0.70;0.65;;;8.80;99.90;;;;;;5051080;28;20028;-38
2024/01/02 05:25:50;;;;;;;0.80;0.70;;;8.90;99.90;;;;;;5051407;28;20100;-40
2024/01/02 05:28:16;;;;;;;0.95;0.60;;;8.90;99.90;;;;;;5051565;28;20040;-39
2024/01/02 05:30:42;;;;;;;1.83;0.90;;;8.90;99.90;;;;;;5051634;28;20457;-38
2024/01/02 05:33:07;;;;;;;1.00;1.00;;;9.00;99.90;;;;;;5051391;28;20424;-40
2024/01/02 05:35:33;;;;;;;1.20;1.10;;;9.00;99.90;;;;;;5051487;28;20021;-39
2024/01/02 05:37:59;;;;;;;0.68;0.68;;;9.10;99.90;;;;;;5051699;28;20032;-40
2024/01/02 05:40:24;;;;;;;1.00;0.82;;;9.10;99.90;;;;;;5051746;28;20346;-41
2024/01/02 05:42:50;;;;;;;0.80;0.80;;;9.10;99.90;;;;;;5051714;28;20033;-40
2024/01/02 05:45:16;;;;;;;0.85;0.85;;;9.20;99.90;;;;;;5051658;28;20016;-39
2024/01/02 05:47:41;;;;;;;1.20;1.10;;;9.20;99.90;;;;;;5051364;28;20124;-39
2024/01/02 05:50:07;;;;;;;0.90;0.90;;;9.20;99.90;;;;;;5051633;28;20045;-39
2024/01/02 05:52:33;;;;;;;1.25;1.15;;;9.20;99.90;;;;;;5051577;28;20025;-40
2024/01/02 05:54:58;;;;;;;1.10;1.10;;;9.30;99.90;;;;;;5051400;28;20034;-40
2024/01/02 05:57:24;;;;;;;1.02;1.02;;;9.30;99.90;;;;;;5051015;28;20079;-40
2024/01/02 05:59:50;;;;;;;1.00;1.00;;;9.30;99.90;;;;;;5051201;28;20025;-42
2024/01/02 06:02:16;;;;;;;1.58;1.48;;;9.40;99.90;;;;;;5051229;28;20052;-39
2024/01/02 06:04:41;;;;;;;1.30;1.23;;;9.40;99.90;;;;;;5051385;28;20029;-40
2024/01/02 06:07:07;;;;;;;1.40;1.30;;;9.40;99.90;;;;;;5051114;28;20104;-37
2024/01/02 06:09:32;;;;;;;1.38;1.27;;;9.50;99.90;;;;;;5051280;28;20025;-40
2024/01/02 06:11:58;;;;;;;1.40;1.30;;;9.50;99.90;;;;;;5051146;28;20029;-39
2024/01/02 06:14:23;;;;;;;1.30;1.20;;;9.60;99.90;;;;;;5051403;28;20044;-38
2024/01/02 06:16:49;;;;;;;1.60;1.50;;;9.60;99.90;;;;;;5051235;28;20070;-40
2024/01/02 06:19:18;;;;;;;1.83;1.60;;;9.60;99.90;;;;;;5051039;28;20025;-39
2024/01/02 06:21:43;;;;;;;1.52;1.42;;;9.70;99.90;;;;;;5050999;28;20359;-40
2024/01/02 06:24:09;;;;;;;1.90;1.80;;;9.70;99.90;;;;;;5051039;28;20029;-39
2024/01/02 06:26:34;;;;;;;1.45;1.35;;;9.80;99.90;;;;;;5050937;28;20473;-38
2024/01/02 06:29:00;;;;;;;1.50;1.40;;;9.80;99.90;;;;;;5051179;28;20017;-40
2024/01/02 06:31:26;;;;;;;2.10;1.90;;;9.80;99.90;;;;;;5050928;28;20397;-38
2024/01/02 06:33:51;;;;;;;2.05;1.70;;;9.90;99.90;;;;;;5050889;28;20051;-41
2024/01/02 06:36:17;;;;;;;2.30;2.10;;;9.90;99.90;;;;;;5050856;28;20107;-39
2024/01/02 06:38:42;;;;;;;2.60;2.40;;;9.90;99.90;;;;;;5051082;28;20040;-39
2024/01/02 06:41:08;;;;;;;2.75;2.47;;;10.00;99.90;;;;;;5050885;28;20063;-40
2024/01/02 06:43:33;;;;;;;2.35;2.15;;;10.00;99.90;;;;;;5052598;28;20115;-39
2024/01/02 06:46:00;;;;;;;4.03;3.33;;;10.10;99.90;;;;;;5054593;28;20572;-41
2024/01/02 06:48:26;;;;;;;3.83;3.03;;;10.10;99.90;;;;;;5054265;28;20033;-40
2024/01/02 06:50:51;;;;;;;5.68;4.05;;;10.20;99.90;;;;;;5054600;28;20139;-39
2024/01/02 06:53:17;;;;;;;5.65;4.30;;;10.20;99.90;;;;;;5054478;28;20032;-39
2024/01/02 06:55:42;;;;;;;6.57;4.88;;;10.30;99.90;;;;;;5054436;28;20032;-42
2024/01/02 06:58:08;;;;;;;6.50;4.57;;;10.30;99.90;;;;;;5053928;28;20028;-40
2024/01/02 07:00:33;;;;;;;6.28;5.32;;;10.40;99.90;;;;;;5054456;28;20035;-40
2024/01/02 07:03:00;;;;;;;7.22;5.47;;;10.40;99.90;;;;;;5054183;28;20052;-41
2024/01/02 07:05:25;;;;;;;8.43;5.35;;;10.40;99.90;;;;;;5054321;28;20052;-40
2024/01/02 07:07:51;;;;;;;7.32;5.57;;;10.50;99.90;;;;;;5053999;28;20049;-42
2024/01/02 07:10:17;;;;;;;9.75;5.75;;;10.50;99.90;;;;;;5054269;28;20020;-41
2024/01/02 07:12:43;;;;;;;10.65;6.65;;;10.60;99.90;;;;;;5054378;28;20425;-41
2024/01/02 07:15:09;;;;;;;11.18;6.32;;;10.60;99.90;;;;;;5053863;28;20021;-41
2024/01/02 07:17:34;;;;;;;9.07;5.30;;;10.60;99.90;;;;;;5053838;28;20025;-40
2024/01/02 07:20:00;;;;;;;10.23;6.20;;;10.70;99.90;;;;;;5053993;28;20534;-42
2024/01/02 07:22:28;;;;;;;8.40;5.50;;;10.70;99.90;;;;;;5053886;28;20024;-40
2024/01/02 07:24:54;;;;;;;13.07;6.43;;;10.70;99.90;;;;;;5054204;28;20029;-41
2024/01/02 07:27:21;;;;;;;9.25;6.47;;;10.70;99.90;;;;;;5053590;28;20033;-42
2024/01/02 07:29:47;;;;;;;18.88;7.70;;;10.80;99.90;;;;;;5054035;28;20517;-40
2024/01/02 07:32:12;;;;;;;10.63;5.47;;;10.80;99.90;;;;;;5053697;28;20155;-41
2024/01/02 07:34:39;;;;;;;10.88;6.00;;;10.80;99.90;;;;;;5053982;28;20064;-41
2024/01/02 07:37:05;;;;;;;10.57;4.75;;;10.80;99.90;;;;;;5053487;28;20516;-39
2024/01/02 07:39:30;;;;;;;16.35;5.30;;;10.80;99.90;;;;;;5053425;28;20032;-39
2024/01/02 07:41:56;;;;;;;11.38;4.30;;;10.90;99.90;;;;;;5053796;28;20028;-38
2024/01/02 07:44:22;;;;;;;14.43;4.13;;;10.90;99.90;;;;;;5053420;28;20036;-40
2024/01/02 07:46:47;;;;;;;16.50;4.68;;;10.90;99.90;;;;;;5053474;28;20021;-39
2024/01/02 07:49:13;;;;;;;12.40;4.20;;;10.90;99.90;;;;;;5053225;28;20094;-40
2024/01/02 07:51:39;;;;;;;13.60;4.10;;;11.00;99.90;;;;;;5053301;28;20029;-41
2024/01/02 07:54:05;;;;;;;12.18;4.00;;;11.00;99.90;;;;;;5053463;28;20032;-41
2024/01/02 07:56:32;;;;;;;11.70;3.85;;;11.00;99.90;;;;;;5053232;28;20489;-41
2024/01/02 07:58:58;;;;;;;9.90;3.90;;;11.00;99.80;;;;;;5052973;28;20021;-39
2024/01/02 08:01:23;;;;;;;15.27;3.85;;;11.00;99.70;;;;;;5053179;28;20025;-40
2024/01/02 08:03:49;;;;;;;13.38;3.28;;;11.00;99.70;;;;;;5053239;28;20032;-40
2024/01/02 08:06:14;;;;;;;14.77;3.40;;;11.00;99.60;;;;;;5052996;28;20108;-38
2024/01/02 08:08:40;;;;;;;13.82;3.53;;;11.10;99.60;;;;;;5053053;28;20404;-40
2024/01/02 08:11:08;;;;;;;16.05;3.80;;;11.10;99.50;;;;;;5052897;28;20265;-39
2024/01/02 08:13:34;;;;;;;11.73;3.20;;;11.10;99.40;;;;;;5052855;28;20032;-38
2024/01/02 08:16:00;;;;;;;19.23;4.13;;;11.10;99.40;;;;;;5052811;28;20116;-41
2024/01/02 08:18:25;;;;;;;17.38;3.88;;;11.10;99.30;;;;;;5052675;28;20040;-39
2024/01/02 08:20:51;;;;;;;14.30;3.17;;;11.10;99.30;;;;;;5052794;28;20032;-39
2024/01/02 08:23:16;;;;;;;13.65;3.78;;;11.10;99.20;;;;;;5052485;28;20059;-38
2024/01/02 08:25:42;;;;;;;11.40;2.90;;;11.10;99.20;;;;;;5052587;28;20060;-40
2024/01/02 08:28:07;;;;;;;16.80;3.58;;;11.10;99.10;;;;;;5052566;28;20037;-39
2024/01/02 08:30:33;;;;;;;13.65;3.17;;;11.20;99.10;;;;;;5052542;28;20027;-39
2024/01/02 08:32:59;;;;;;;19.92;3.40;;;11.20;99.00;;;;;;5052313;28;20044;-40
2024/01/02 08:35:24;;;;;;;13.52;3.30;;;11.20;99.00;;;;;;5052523;28;20037;-41
2024/01/02 08:37:50;;;;;;;12.77;3.25;;;11.20;98.90;;;;;;5052282;28;20059;-41
2024/01/02 08:40:16;;;;;;;11.50;3.28;;;11.20;98.90;;;;;;5052443;28;20037;-39
2024/01/02 08:42:41;;;;;;;14.07;4.05;;;11.20;98.80;;;;;;5052449;28;20484;-40
2024/01/02 08:45:10;;;;;;;18.55;4.05;;;11.30;98.80;;;;;;5052305;28;20021;-42
2024/01/02 08:47:39;;;;;;;14.50;3.85;;;11.30;98.80;;;;;;5050846;28;20021;-40
2024/01/02 08:50:06;;;;;;;15.65;3.70;;;11.30;98.80;;;;;;5050976;28;20036;-41
2024/01/02 08:52:32;;;;;;;14.82;3.90;;;11.30;99.00;;;;;;5052489;28;20031;-44
2024/01/02 08:54:59;;;;;;;12.85;4.13;;;11.30;98.70;;;;;;5052303;28;20040;-39
2024/01/02 08:57:25;;;;;;;17.23;3.78;;;11.30;98.60;;;;;;5052271;28;20025;-40
2024/01/02 08:59:50;;;;;;;19.70;3.65;;;11.30;98.60;;;;;;5052014;28;20031;-42
2024/01/02 09:02:16;;;;;;;15.13;4.03;;;11.30;98.50;;;;;;5051956;28;20391;-40
2024/01/02 09:04:43;;;;;;;17.17;4.10;;;11.30;98.50;;;;;;5051881;28;20444;-38
2024/01/02 09:07:09;;;;;;;21.63;4.20;;;11.30;98.50;;;;;;5051794;28;20033;-39
2024/01/02 09:09:35;;;;;;;24.70;4.00;;;11.30;98.50;;;;;;5034169;28;20027;-38
2024/01/02 09:12:02;;;;;;;16.30;3.88;;;11.40;98.40;;;;;;5051895;28;20028;-40
2024/01/02 09:14:28;;;;;;;12.30;3.05;;;11.30;98.40;;;;;;5052134;28;20075;-38
2024/01/02 09:16:54;;;;;;;18.95;4.07;;;11.40;98.40;;;;;;5052002;28;20120;-38
2024/01/02 09:19:19;;;;;;;17.00;3.65;;;11.40;98.40;;;;;;5051570;28;20132;-41
2024/01/02 09:21:45;;;;;;;23.20;4.40;;;11.40;98.30;;;;;;5051645;28;20086;-39
2024/01/02 09:24:13;;;;;;;15.30;3.80;;;11.40;98.30;;;;;;5052125;28;20116;-41
2024/01/02 09:26:40;;;;;;;14.00;3.53;;;11.50;98.30;;;;;;5051910;28;20037;-41
2024/01/02 09:29:07;;;;;;;14.57;3.35;;;11.50;98.20;;;;;;5051617;28;20116;-40
2024/01/02 09:31:32;;;;;;;13.88;3.60;;;11.50;98.20;;;;;;5050309;28;20445;-40
2024/01/02 09:33:58;;;;;;;14.73;3.28;;;11.50;98.10;;;;;;5051434;28;20087;-40
2024/01/02 09:36:24;;;;;;;13.60;3.30;;;11.50;98.10;;;;;;5051824;28;20036;-40
2024/01/02 09:38:49;;;;;;;17.33;4.07;;;11.60;98.10;;;;;;5051695;28;20029;-40
2024/01/02 09:41:25;;;;;;;20.08;3.45;;;11.60;98.10;;;;;;5050261;28;20087;-40
2024/01/02 09:44:11;;;;;;;13.43;3.30;;;11.60;98.00;;;;;;5051404;28;20056;-41
2024/01/02 09:46:51;;;;;;;15.88;3.95;;;11.60;98.00;;;;;;5051395;28;20120;-39
2024/01/02 09:49:32;;;;;;;16.13;3.80;;;11.60;98.00;;;;;;5051434;28;20021;-41
2024/01/02 09:52:25;;;;;;;10.50;3.92;;;11.70;97.90;;;;;;5051480;28;20021;-38
2024/01/02 09:55:05;;;;;;;16.02;4.25;;;11.70;97.90;;;;;;5050229;28;20098;-40
2024/01/02 09:57:40;;;;;;;10.40;3.65;;;11.70;97.90;;;;;;5051027;28;20116;-41
2024/01/02 10:00:12;;;;;;;12.07;3.78;;;11.70;97.90;;;;;;5051587;28;20424;-39
2024/01/02 10:02:38;;;;;;;10.73;3.53;;;11.70;97.80;;;;;;5051317;28;20127;-38
2024/01/02 10:05:33;;;;;;;13.55;3.67;;;11.70;97.80;;;;;;5051188;28;20021;-40
2024/01/02 10:07:59;;;;;;;13.75;3.90;;;11.80;97.80;;;;;;5031873;28;20057;-40
2024/01/02 10:10:38;;;;;;;12.75;4.10;;;11.80;97.80;;;;;;5051178;28;20040;-39
2024/01/02 10:13:23;;;;;;;12.43;4.18;;;11.80;97.80;;;;;;5051316;28;20029;-41
2024/01/02 10:16:21;;;;;;;16.13;6.35;;;11.80;97.70;;;;;;5051137;28;20080;-38
2024/01/02 10:19:00;;;;;;;14.25;6.20;;;11.80;97.70;;;;;;5053284;28;20037;-40
2024/01/02 10:21:50;;;;;;;13.35;5.68;;;11.80;97.70;;;;;;5053773;28;20440;-39
2024/01/02 10:24:41;;;;;;;12.93;6.25;;;11.80;97.70;;;;;;5054875;28;20488;-40
2024/01/02 10:27:12;;;;;;;10.68;6.28;;;11.80;97.70;;;;;;5054731;28;20512;-39
2024/01/02 10:29:53;;;;;;;15.15;6.68;;;11.80;97.60;;;;;;5055147;28;20355;-41
2024/01/02 10:32:36;;;;;;;10.98;6.20;;;11.90;97.70;;;;;;5054992;28;20051;-40
2024/01/02 10:35:28;;;;;;;12.05;6.45;;;11.90;97.60;;;;;;5055204;28;20512;-42
2024/01/02 10:38:08;;;;;;;10.85;5.95;;;11.90;97.60;;;;;;5054631;28;20056;-40
2024/01/02 10:40:38;;;;;;;11.57;6.15;;;11.90;97.60;;;;;;5054754;28;20053;-42
2024/01/02 10:43:27;;;;;;;11.77;6.53;;;11.90;97.60;;;;;;5054989;28;20075;-43
2024/01/02 10:46:04;;;;;;;9.23;6.15;;;12.00;97.60;;;;;;5054886;28;20481;-41
2024/01/02 10:48:55;;;;;;;9.23;6.20;;;12.00;97.50;;;;;;5054765;28;20025;-44
2024/01/02 10:51:26;;;;;;;9.70;5.95;;;12.00;97.50;;;;;;5054749;28;20392;-40
2024/01/02 10:54:05;;;;;;;7.80;5.72;;;12.00;97.50;;;;;;5054531;28;20116;-41
2024/01/02 10:56:33;;;;;;;9.65;5.82;;;12.00;97.50;;;;;;5054478;28;20102;-39
2024/01/02 10:59:31;;;;;;;8.23;5.95;;;12.00;97.50;;;;;;5054291;28;20119;-39
2024/01/02 11:02:14;;;;;;;8.93;5.10;;;12.00;97.50;;;;;;5043640;28;20400;-39
2024/01/02 11:05:14;;;;;;;6.47;5.03;;;12.00;97.50;;;;;;5054127;28;20037;-40
2024/01/02 11:07:49;;;;;;;6.10;4.30;;;12.00;97.50;;;;;;5054152;28;20678;-39
2024/01/02 11:10:23;;;;;;;5.63;4.28;;;12.00;97.50;;;;;;5054157;28;20039;-38
2024/01/02 11:13:01;;;;;;;5.72;4.10;;;11.90;97.40;;;;;;5054029;28;20115;-38
2024/01/02 11:15:29;;;;;;;6.05;3.78;;;12.00;97.50;;;;;;5054027;28;20106;-38
2024/01/02 11:17:57;;;;;;;4.25;3.42;;;11.90;97.50;;;;;;5054126;28;20036;-37
2024/01/02 11:20:30;;;;;;;4.93;3.60;;;12.00;97.50;;;;;;5053793;28;20029;-46
2024/01/02 11:23:11;;;;;;;4.75;3.05;;;12.00;97.60;;;;;;5053810;28;20048;-38
2024/01/02 11:25:46;;;;;;;3.42;2.90;;;12.00;97.50;;;;;;5054160;28;20499;-38
2024/01/02 11:28:13;;;;;;;2.83;2.50;;;11.90;97.50;;;;;;5053793;28;20033;-40
2024/01/02 11:30:41;;;;;;;2.63;2.42;;;11.90;97.50;;;;;;5053492;28;20473;-40
2024/01/02 11:33:38;;;;;;;2.42;2.10;;;11.90;97.60;;;;;;5053695;28;20076;-38
2024/01/02 11:36:24;;;;;;;2.40;1.90;;;11.90;97.60;;;;;;5053593;28;20112;-40
2024/01/02 11:39:16;;;;;;;1.90;1.80;;;11.90;97.60;;;;;;5053781;28;20362;-40
2024/01/02 11:41:52;;;;;;;1.77;1.67;;;11.90;97.60;;;;;;5053622;28;20039;-40
2024/01/02 11:44:24;;;;;;;1.98;1.75;;;11.90;97.60;;;;;;5053766;28;20328;-39
2024/01/02 11:46:59;;;;;;;1.80;1.70;;;11.90;97.60;;;;;;5053439;28;20035;-40
2024/01/02 11:49:28;;;;;;;1.92;1.73;;;11.90;97.60;;;;;;5053439;28;20036;-40
2024/01/02 11:52:04;;;;;;;1.88;1.73;;;11.90;97.60;;;;;;5053750;28;20033;-39
2024/01/02 11:55:03;;;;;;;1.50;1.40;;;11.90;97.60;;;;;;5053806;28;20115;-45
2024/01/02 11:57:49;;;;;;;1.35;1.25;;;11.90;97.60;;;;;;5053121;28;20171;-40
2024/01/02 12:00:33;;;;;;;1.63;1.50;;;11.90;97.60;;;;;;5053283;28;20109;-40
2024/01/02 12:03:10;;;;;;;1.23;1.13;;;11.90;97.50;;;;;;5053277;28;20071;-38
2024/01/02 12:05:38;;;;;;;1.52;1.10;;;11.90;97.60;;;;;;5053033;28;20504;-38
2024/01/02 12:08:09;;;;;;;1.27;1.15;;;11.90;97.60;;;;;;5053336;28;20389;-41
2024/01/02 12:10:41;;;;;;;1.75;1.23;;;11.90;97.50;;;;;;5053331;28;20453;-38
2024/01/02 12:13:29;;;;;;;2.38;1.30;;;12.00;97.50;;;;;;5053284;28;20111;-39
2024/01/02 12:16:07;;;;;;;1.23;1.13;;;12.00;97.50;;;;;;5053193;28;20060;-39
2024/01/02 12:18:36;;;;;;;1.35;1.15;;;12.00;97.40;;;;;;5053007;28;20469;-41
2024/01/02 12:21:11;;;;;;;0.85;0.80;;;12.00;97.40;;;;;;5052950;28;20476;-41
2024/01/02 12:23:40;;;;;;;2.03;1.10;;;12.00;97.40;;;;;;5052605;28;20029;-39
2024/01/02 12:26:06;;;;;;;0.93;0.85;;;11.90;97.40;;;;;;5052628;28;20055;-40
2024/01/02 12:28:36;;;;;;;0.60;0.60;;;11.90;97.40;;;;;;5051285;28;20056;-40
2024/01/02 12:31:47;;;;;;;0.70;0.70;;;11.90;97.40;;;;;;5052691;28;20032;-41
2024/01/02 12:34:28;;;;;;;0.95;0.70;;;12.00;97.40;;;;;;5053046;28;20045;-41
2024/01/02 12:37:02;;;;;;;1.20;1.10;;;12.00;97.40;;;;;;5052891;28;20033;-37
2024/01/02 12:39:36;;;;;;;1.38;1.27;;;11.90;97.30;;;;;;5052720;28;20374;-38
2024/01/02 12:42:05;;;;;;;1.38;1.27;;;11.90;97.30;;;;;;5051895;28;20503;-40
2024/01/02 12:44:34;;;;;;;1.52;1.42;;;11.90;97.30;;;;;;5052318;28;20178;-40
2024/01/02 12:47:05;;;;;;;2.13;1.30;;;11.90;97.30;;;;;;5052295;28;20389;-39
2024/01/02 12:49:38;;;;;;;1.38;1.27;;;11.90;97.20;;;;;;5052584;28;20029;-40
2024/01/02 12:52:06;;;;;;;1.20;1.17;;;11.90;97.30;;;;;;5052334;28;20021;-40
2024/01/02 12:54:38;;;;;;;1.10;1.00;;;11.80;97.30;;;;;;5052701;28;20402;-39
2024/01/02 12:57:06;;;;;;;1.00;1.00;;;11.80;97.30;;;;;;5052069;28;20106;-39
2024/01/02 12:59:35;;;;;;;1.30;1.20;;;11.80;97.30;;;;;;5052304;28;20065;-40